Time;durP1;ratioP1;P1;durP2;ratioP2;P2;SDS_P1;SDS_P2;PMS_P1;PMS_P2;Temp;Humidity;BMP_temperature;BMP_pressure;BME280_temperature;BME280_humidity;BME280_pressure;Samples;Min_cycle;Max_cycle;Signal;HPM_P1;HPM_P2
2022/02/18 00:00:52;;;;;;;9.07;2.85;;;5.70;99.20;;;;;;4995913;28;20161;-55
2022/02/18 00:03:18;;;;;;;10.65;3.10;;;5.80;99.10;;;;;;5013597;28;20080;-54
2022/02/18 00:05:44;;;;;;;8.38;2.80;;;6.00;98.70;;;;;;5014019;28;20030;-51
2022/02/18 00:08:10;;;;;;;8.10;2.55;;;5.90;98.80;;;;;;5014235;28;20052;-52
2022/02/18 00:10:35;;;;;;;6.68;2.65;;;5.90;98.70;;;;;;5013129;28;20124;-52
2022/02/18 00:13:01;;;;;;;9.43;2.60;;;5.80;98.70;;;;;;4996602;28;20038;-56
2022/02/18 00:15:28;;;;;;;9.57;3.28;;;5.80;98.80;;;;;;5013452;28;20471;-54
2022/02/18 00:17:54;;;;;;;11.30;2.88;;;5.90;98.60;;;;;;5012529;28;20105;-55
2022/02/18 00:20:20;;;;;;;7.55;2.72;;;5.80;98.60;;;;;;5012775;28;20057;-55
2022/02/18 00:22:46;;;;;;;5.75;2.60;;;5.70;98.50;;;;;;5012545;28;20034;-54
2022/02/18 00:25:11;;;;;;;7.93;2.70;;;5.80;98.50;;;;;;5011407;28;20414;-56
2022/02/18 00:27:41;;;;;;;6.90;2.35;;;5.90;98.50;;;;;;5013415;28;20056;-55
2022/02/18 00:30:08;;;;;;;8.95;2.40;;;5.80;98.40;;;;;;5013182;28;20129;-53
2022/02/18 00:32:35;;;;;;;7.22;2.30;;;5.70;98.50;;;;;;5012213;28;20042;-52
2022/02/18 00:35:01;;;;;;;7.32;2.53;;;5.70;98.60;;;;;;5021995;28;20041;-55
2022/02/18 00:37:27;;;;;;;5.82;2.13;;;5.70;99.00;;;;;;5032833;28;20049;-56
2022/02/18 00:39:54;;;;;;;5.97;2.15;;;5.70;99.20;;;;;;5014551;28;20106;-51
2022/02/18 00:42:20;;;;;;;7.65;2.35;;;5.80;99.70;;;;;;5016372;28;20026;-52
2022/02/18 00:44:46;;;;;;;7.80;2.30;;;5.80;99.90;;;;;;5012122;28;20033;-55
2022/02/18 00:47:12;;;;;;;5.57;2.40;;;5.80;99.90;;;;;;5012570;28;20057;-54
2022/02/18 00:49:38;;;;;;;7.32;2.33;;;5.90;99.90;;;;;;5012972;28;20520;-55
2022/02/18 00:52:04;;;;;;;6.90;2.42;;;5.90;99.90;;;;;;5016663;28;20045;-53
2022/02/18 00:54:29;;;;;;;4.68;2.00;;;5.90;99.90;;;;;;5015987;28;20030;-53
2022/02/18 00:56:55;;;;;;;6.00;2.55;;;5.90;99.90;;;;;;5015827;28;20108;-55
2022/02/18 00:59:21;;;;;;;4.53;2.00;;;5.90;99.90;;;;;;5015511;28;20030;-54
2022/02/18 01:01:47;;;;;;;7.50;2.50;;;5.90;99.90;;;;;;5015791;28;20072;-56
2022/02/18 01:04:13;;;;;;;6.32;2.60;;;6.00;99.90;;;;;;5015728;28;20084;-52
2022/02/18 01:06:39;;;;;;;5.95;2.40;;;6.00;99.90;;;;;;5015898;28;20026;-55
2022/02/18 01:09:04;;;;;;;5.13;2.63;;;5.90;99.90;;;;;;5015456;28;20441;-56
2022/02/18 01:11:30;;;;;;;8.80;2.88;;;6.00;99.90;;;;;;5015700;28;20156;-54
2022/02/18 01:13:55;;;;;;;7.00;2.65;;;5.90;99.90;;;;;;5015237;28;20041;-52
2022/02/18 01:16:21;;;;;;;4.63;2.17;;;6.00;99.90;;;;;;4998035;28;20038;-51
2022/02/18 01:18:46;;;;;;;7.63;2.30;;;6.00;99.90;;;;;;5015179;28;20074;-52
2022/02/18 01:21:12;;;;;;;5.22;2.13;;;5.90;99.90;;;;;;5015067;28;20117;-53
2022/02/18 01:23:38;;;;;;;8.68;2.63;;;5.90;99.90;;;;;;5014762;28;20026;-53
2022/02/18 01:26:04;;;;;;;9.63;2.88;;;5.90;99.90;;;;;;5014145;28;20375;-54
2022/02/18 01:28:30;;;;;;;10.32;2.72;;;5.90;99.90;;;;;;5015333;28;20026;-52
2022/02/18 01:30:56;;;;;;;9.63;2.30;;;5.90;99.90;;;;;;5015409;28;20042;-53
2022/02/18 01:33:22;;;;;;;4.60;2.28;;;6.00;99.90;;;;;;5015616;28;20080;-54
2022/02/18 01:35:48;;;;;;;6.72;3.13;;;5.80;99.90;;;;;;5029842;28;20504;-53
2022/02/18 01:38:14;;;;;;;8.48;2.80;;;5.60;99.90;;;;;;5034650;28;20034;-52
2022/02/18 01:40:41;;;;;;;5.55;2.90;;;5.50;99.90;;;;;;5032609;28;20030;-55
2022/02/18 01:43:07;;;;;;;6.75;2.80;;;5.60;99.90;;;;;;5013952;28;20022;-55
2022/02/18 01:45:32;;;;;;;8.95;2.40;;;5.50;99.90;;;;;;5014410;28;20088;-54
2022/02/18 01:47:58;;;;;;;6.00;2.33;;;5.50;99.90;;;;;;5014725;28;20059;-53
2022/02/18 01:50:23;;;;;;;5.60;2.67;;;5.50;99.90;;;;;;5015758;28;20038;-56
2022/02/18 01:52:51;;;;;;;4.40;2.13;;;5.50;99.90;;;;;;5015272;28;20478;-57
2022/02/18 01:55:18;;;;;;;8.27;2.92;;;5.70;99.90;;;;;;5015105;28;20030;-56
2022/02/18 01:57:53;;;;;;;5.25;2.83;;;5.70;99.90;;;;;;5014338;28;20033;-52
2022/02/18 02:00:22;;;;;;;7.32;2.97;;;5.70;99.90;;;;;;5015415;28;20052;-54
2022/02/18 02:02:49;;;;;;;14.05;3.35;;;5.60;99.90;;;;;;5015205;28;20232;-54
2022/02/18 02:05:14;;;;;;;7.55;3.08;;;5.50;99.90;;;;;;5016060;28;20029;-52
2022/02/18 02:07:41;;;;;;;7.40;3.45;;;5.40;99.90;;;;;;5015936;28;20033;-52
2022/02/18 02:10:08;;;;;;;8.23;3.45;;;5.40;99.90;;;;;;5015190;28;20117;-50
2022/02/18 02:12:39;;;;;;;5.63;3.20;;;5.40;99.90;;;;;;5014337;28;20045;-53
2022/02/18 02:15:07;;;;;;;9.23;3.38;;;5.30;99.90;;;;;;5014527;28;20041;-54
2022/02/18 02:17:33;;;;;;;6.55;2.65;;;5.50;99.90;;;;;;5014584;28;20410;-52
2022/02/18 02:19:58;;;;;;;7.53;3.15;;;5.60;99.90;;;;;;5014331;28;20109;-54
2022/02/18 02:22:29;;;;;;;9.23;3.30;;;5.60;99.90;;;;;;5014572;28;20113;-51
2022/02/18 02:24:56;;;;;;;7.97;2.85;;;5.60;99.90;;;;;;5014644;28;20026;-55
2022/02/18 02:27:22;;;;;;;9.13;2.80;;;5.60;99.90;;;;;;4997075;28;20076;-53
2022/02/18 02:29:49;;;;;;;8.85;3.35;;;5.60;99.90;;;;;;5014488;28;20040;-51
2022/02/18 02:32:15;;;;;;;8.05;2.65;;;5.60;99.90;;;;;;5013384;28;20100;-53
2022/02/18 02:34:42;;;;;;;5.85;2.80;;;5.60;99.90;;;;;;5020778;28;20625;-52
2022/02/18 02:37:07;;;;;;;6.22;2.83;;;5.70;99.90;;;;;;5034203;28;20390;-52
2022/02/18 02:39:33;;;;;;;8.75;2.85;;;5.50;99.90;;;;;;5033644;28;20052;-55
2022/02/18 02:42:03;;;;;;;8.57;3.28;;;5.60;99.90;;;;;;5021119;28;20041;-52
2022/02/18 02:44:29;;;;;;;6.72;3.00;;;5.60;99.90;;;;;;5013637;28;20025;-55
2022/02/18 02:46:55;;;;;;;9.15;3.00;;;5.60;99.90;;;;;;5013876;28;20084;-53
2022/02/18 02:49:21;;;;;;;9.27;2.90;;;5.70;99.90;;;;;;5014007;28;20046;-54
2022/02/18 02:51:47;;;;;;;8.18;2.92;;;5.60;99.90;;;;;;5014541;28;20029;-50
2022/02/18 02:54:12;;;;;;;4.72;2.70;;;5.60;99.90;;;;;;5013927;28;20038;-54
2022/02/18 02:56:38;;;;;;;6.03;2.83;;;5.60;99.90;;;;;;5014746;28;20057;-54
2022/02/18 02:59:04;;;;;;;7.65;2.83;;;5.70;99.90;;;;;;5013304;28;20034;-50
2022/02/18 03:01:29;;;;;;;4.97;2.45;;;5.60;99.90;;;;;;5013475;28;20018;-54
2022/02/18 03:03:55;;;;;;;4.50;2.60;;;5.60;99.90;;;;;;5012977;28;20113;-51
2022/02/18 03:06:21;;;;;;;8.10;3.00;;;5.60;99.90;;;;;;5013372;28;20030;-52
2022/02/18 03:08:47;;;;;;;8.98;3.05;;;5.60;99.90;;;;;;5013343;28;20116;-55
2022/02/18 03:11:16;;;;;;;6.32;2.88;;;5.60;99.90;;;;;;5013566;28;20125;-55
2022/02/18 03:13:45;;;;;;;5.30;2.63;;;5.50;99.90;;;;;;5012394;28;20068;-51
2022/02/18 03:16:11;;;;;;;8.15;3.20;;;5.60;99.90;;;;;;5013680;28;20048;-52
2022/02/18 03:18:37;;;;;;;6.72;2.70;;;5.60;99.90;;;;;;5012927;28;20094;-52
2022/02/18 03:21:03;;;;;;;7.18;2.65;;;5.60;99.90;;;;;;4995773;28;20477;-52
2022/02/18 03:23:29;;;;;;;6.90;2.75;;;5.60;99.90;;;;;;4993917;28;20525;-51
2022/02/18 03:25:54;;;;;;;7.60;2.55;;;5.70;99.90;;;;;;4976297;28;20031;-48
2022/02/18 03:28:20;;;;;;;8.93;2.70;;;5.60;99.90;;;;;;4993401;28;20022;-49
2022/02/18 03:30:46;;;;;;;5.82;2.60;;;5.70;99.90;;;;;;4992759;28;20031;-49
2022/02/18 03:33:11;;;;;;;7.35;2.85;;;5.70;99.90;;;;;;4993508;28;20121;-52
2022/02/18 03:35:41;;;;;;;7.85;3.13;;;5.60;99.90;;;;;;4993438;28;20425;-51
2022/02/18 03:38:07;;;;;;;6.25;2.83;;;5.50;99.90;;;;;;4993255;28;20030;-51
2022/02/18 03:40:32;;;;;;;6.90;2.70;;;5.50;99.90;;;;;;4994506;28;20034;-50
2022/02/18 03:42:58;;;;;;;5.90;2.67;;;5.60;99.90;;;;;;5013151;28;20110;-53
2022/02/18 03:45:24;;;;;;;7.32;2.80;;;5.60;99.90;;;;;;5012223;28;20040;-54
2022/02/18 03:47:50;;;;;;;7.78;2.70;;;5.70;99.90;;;;;;4995397;28;20121;-53
2022/02/18 03:50:15;;;;;;;8.73;2.78;;;5.70;99.90;;;;;;4995786;28;20138;-47
2022/02/18 03:52:41;;;;;;;9.65;2.90;;;5.70;99.90;;;;;;5012771;28;20046;-47
2022/02/18 03:55:07;;;;;;;6.90;3.30;;;5.80;99.90;;;;;;5014214;28;20030;-48
2022/02/18 03:57:32;;;;;;;5.95;3.03;;;5.80;99.90;;;;;;5015416;28;20033;-50
2022/02/18 03:59:58;;;;;;;7.63;3.00;;;5.90;99.90;;;;;;5015358;28;20444;-50
2022/02/18 04:02:24;;;;;;;6.20;2.75;;;5.90;99.90;;;;;;5013415;28;20034;-49
2022/02/18 04:04:49;;;;;;;6.45;2.88;;;5.90;99.90;;;;;;5013456;28;20084;-49
2022/02/18 04:07:15;;;;;;;8.05;2.97;;;5.90;99.90;;;;;;5013423;28;20034;-49
2022/02/18 04:09:41;;;;;;;6.60;3.15;;;6.00;99.90;;;;;;4995827;28;20433;-50
2022/02/18 04:12:06;;;;;;;5.65;3.25;;;6.00;99.90;;;;;;5012553;28;20060;-51
2022/02/18 04:14:32;;;;;;;7.05;2.88;;;6.10;99.90;;;;;;5013054;28;20037;-51
2022/02/18 04:16:57;;;;;;;8.50;2.70;;;6.10;99.90;;;;;;5013805;28;20127;-52
2022/02/18 04:19:24;;;;;;;9.23;3.38;;;6.00;99.90;;;;;;5012997;28;20500;-50
2022/02/18 04:21:49;;;;;;;6.97;2.17;;;6.00;99.90;;;;;;5013289;28;20034;-49
2022/02/18 04:24:15;;;;;;;6.00;3.22;;;6.00;99.90;;;;;;4996553;28;20504;-52
2022/02/18 04:26:41;;;;;;;12.70;3.53;;;6.00;99.90;;;;;;5016549;28;20384;-52
2022/02/18 04:29:06;;;;;;;6.15;3.10;;;6.00;99.90;;;;;;5016106;28;20127;-55
2022/02/18 04:31:32;;;;;;;7.80;3.72;;;6.00;99.90;;;;;;5016346;28;20125;-51
2022/02/18 04:33:58;;;;;;;11.98;3.10;;;6.00;99.90;;;;;;5016335;28;20033;-52
2022/02/18 04:36:23;;;;;;;10.90;2.97;;;6.10;99.90;;;;;;5016887;28;20038;-54
2022/02/18 04:38:49;;;;;;;7.65;2.92;;;6.20;99.90;;;;;;5016474;28;20061;-48
2022/02/18 04:41:15;;;;;;;8.35;3.55;;;6.20;99.90;;;;;;5002683;28;20557;-49
2022/02/18 04:43:40;;;;;;;12.02;3.58;;;6.20;99.90;;;;;;5016673;28;20025;-49
2022/02/18 04:46:06;;;;;;;13.52;3.00;;;6.10;99.90;;;;;;5016700;28;20038;-51
2022/02/18 04:48:31;;;;;;;8.70;3.25;;;6.20;99.90;;;;;;5014533;28;20045;-48
2022/02/18 04:50:58;;;;;;;11.48;3.63;;;6.30;99.90;;;;;;5016257;28;20038;-55
2022/02/18 04:53:23;;;;;;;6.65;3.50;;;6.30;99.90;;;;;;5016068;28;20038;-52
2022/02/18 04:55:49;;;;;;;13.50;3.63;;;6.40;99.90;;;;;;5016250;28;20040;-49
2022/02/18 04:58:14;;;;;;;7.50;2.88;;;6.30;99.90;;;;;;5015837;28;20094;-50
2022/02/18 05:00:40;;;;;;;7.05;3.03;;;6.30;99.90;;;;;;5016544;28;20110;-53
2022/02/18 05:03:05;;;;;;;11.63;3.38;;;6.30;99.90;;;;;;5014421;28;20088;-49
2022/02/18 05:05:31;;;;;;;8.38;3.58;;;6.20;99.90;;;;;;5015843;28;20576;-52
2022/02/18 05:07:57;;;;;;;11.55;3.17;;;6.20;99.90;;;;;;5016379;28;20042;-50
2022/02/18 05:10:22;;;;;;;9.73;4.38;;;6.20;99.90;;;;;;5016055;28;20501;-50
2022/02/18 05:12:48;;;;;;;10.55;3.25;;;6.20;99.90;;;;;;5015764;28;20066;-52
2022/02/18 05:15:13;;;;;;;7.78;2.80;;;6.10;99.90;;;;;;5015769;28;20038;-54
2022/02/18 05:17:39;;;;;;;7.55;3.00;;;6.10;99.90;;;;;;5015674;28;20034;-51
2022/02/18 05:20:05;;;;;;;12.57;4.07;;;6.10;99.90;;;;;;5025381;28;20029;-53
2022/02/18 05:22:30;;;;;;;8.05;3.20;;;6.20;99.90;;;;;;5035015;28;20663;-54
2022/02/18 05:24:56;;;;;;;6.80;3.10;;;6.20;99.90;;;;;;5035439;28;20034;-52
2022/02/18 05:27:22;;;;;;;8.43;3.20;;;6.20;99.90;;;;;;5035525;28;20187;-51
2022/02/18 05:29:47;;;;;;;9.88;3.33;;;6.20;99.90;;;;;;5035515;28;20040;-53
2022/02/18 05:32:13;;;;;;;6.82;2.88;;;6.20;99.90;;;;;;5017805;28;20060;-49
2022/02/18 05:34:38;;;;;;;11.65;3.72;;;6.20;99.90;;;;;;5037284;28;20064;-53
2022/02/18 05:37:05;;;;;;;8.43;3.05;;;6.20;99.90;;;;;;5035523;28;20065;-52
2022/02/18 05:39:30;;;;;;;10.27;3.38;;;6.10;99.90;;;;;;5034961;28;20026;-51
2022/02/18 05:41:56;;;;;;;7.53;3.15;;;6.20;99.90;;;;;;5034932;28;20026;-50
2022/02/18 05:44:22;;;;;;;8.07;2.78;;;6.20;99.90;;;;;;5034984;28;20389;-52
2022/02/18 05:46:48;;;;;;;8.93;3.10;;;6.20;99.90;;;;;;5034641;28;20032;-55
2022/02/18 05:49:13;;;;;;;10.23;3.40;;;6.30;99.90;;;;;;5034676;28;20037;-51
2022/02/18 05:51:39;;;;;;;10.77;3.97;;;6.20;99.90;;;;;;5034820;28;20033;-53
2022/02/18 05:54:05;;;;;;;9.30;3.42;;;6.20;99.90;;;;;;5017110;28;20036;-55
2022/02/18 05:56:30;;;;;;;12.70;3.35;;;6.30;99.90;;;;;;5034747;28;20040;-54
2022/02/18 05:58:56;;;;;;;9.50;3.85;;;6.30;99.90;;;;;;5035091;28;20148;-55
2022/02/18 06:01:22;;;;;;;9.10;3.40;;;6.20;99.90;;;;;;5017135;28;20485;-50
2022/02/18 06:03:48;;;;;;;10.15;3.67;;;6.30;99.90;;;;;;5034684;28;20400;-55
2022/02/18 06:06:15;;;;;;;9.75;3.55;;;6.30;99.90;;;;;;5037040;28;20493;-52
2022/02/18 06:08:41;;;;;;;8.85;3.42;;;6.30;99.90;;;;;;5037262;28;20400;-52
2022/02/18 06:11:06;;;;;;;8.20;3.15;;;6.30;99.90;;;;;;5018860;28;20089;-54
2022/02/18 06:13:32;;;;;;;12.80;3.53;;;6.30;99.90;;;;;;5018705;28;20133;-51
2022/02/18 06:15:57;;;;;;;13.95;3.28;;;6.20;99.90;;;;;;5034849;28;20052;-51
2022/02/18 06:18:23;;;;;;;8.23;3.53;;;6.30;99.90;;;;;;5034560;28;20033;-55
2022/02/18 06:20:49;;;;;;;11.10;3.63;;;6.40;99.90;;;;;;4982147;28;20041;-51
2022/02/18 06:23:14;;;;;;;15.02;4.00;;;6.40;99.90;;;;;;4995127;28;20442;-50
2022/02/18 06:25:40;;;;;;;13.13;3.85;;;6.40;99.90;;;;;;4994997;28;20062;-56
2022/02/18 06:28:11;;;;;;;14.63;4.07;;;6.40;99.90;;;;;;4994930;28;20031;-55
2022/02/18 06:30:39;;;;;;;12.82;3.92;;;6.40;99.90;;;;;;4995037;28;20042;-51
2022/02/18 06:33:06;;;;;;;11.00;3.78;;;6.40;99.90;;;;;;4994665;28;20422;-56
2022/02/18 06:35:33;;;;;;;14.93;3.90;;;6.50;99.90;;;;;;4994724;28;20041;-53
2022/02/18 06:37:58;;;;;;;22.50;5.45;;;6.50;99.90;;;;;;4994712;28;20041;-52
2022/02/18 06:40:24;;;;;;;11.80;3.95;;;6.60;99.90;;;;;;4993690;28;20464;-53
2022/02/18 06:42:49;;;;;;;14.70;3.60;;;6.60;99.90;;;;;;4996390;28;20030;-56
2022/02/18 06:45:17;;;;;;;8.52;3.10;;;6.60;99.90;;;;;;5013758;28;20605;-53
2022/02/18 06:47:45;;;;;;;10.52;4.03;;;6.60;99.90;;;;;;5012758;28;20025;-55
2022/02/18 06:50:10;;;;;;;11.27;4.35;;;6.60;99.90;;;;;;5014210;28;20026;-52
2022/02/18 06:52:36;;;;;;;13.60;4.55;;;6.70;99.90;;;;;;5013893;28;20049;-56
2022/02/18 06:55:02;;;;;;;10.80;3.83;;;6.60;99.90;;;;;;5012953;28;20549;-52
2022/02/18 06:57:27;;;;;;;14.73;4.47;;;6.60;99.90;;;;;;5014212;28;20065;-52
2022/02/18 06:59:53;;;;;;;11.43;3.78;;;6.60;99.90;;;;;;5012497;28;20037;-53
2022/02/18 07:02:19;;;;;;;17.70;4.03;;;6.70;99.90;;;;;;5014228;28;20042;-50
2022/02/18 07:04:44;;;;;;;19.55;4.20;;;6.70;99.90;;;;;;5012628;28;20555;-54
2022/02/18 07:07:11;;;;;;;14.75;5.40;;;6.80;99.90;;;;;;5013600;28;20513;-52
2022/02/18 07:09:36;;;;;;;20.08;4.90;;;6.80;99.90;;;;;;5013560;28;20181;-53
2022/02/18 07:12:02;;;;;;;17.38;4.22;;;6.80;99.90;;;;;;5013725;28;20074;-48
2022/02/18 07:14:28;;;;;;;17.67;4.93;;;6.80;99.90;;;;;;5013913;28;20037;-53
2022/02/18 07:16:54;;;;;;;9.75;4.18;;;6.80;99.90;;;;;;4996407;28;20099;-51
2022/02/18 07:19:20;;;;;;;18.13;5.30;;;6.80;99.90;;;;;;4995185;28;20493;-53
2022/02/18 07:21:45;;;;;;;16.17;4.65;;;6.80;99.90;;;;;;5011657;28;20030;-53
2022/02/18 07:24:12;;;;;;;20.23;4.68;;;6.80;99.90;;;;;;5013320;28;20057;-53
2022/02/18 07:26:38;;;;;;;12.55;4.57;;;6.70;99.90;;;;;;5013733;28;20113;-50
2022/02/18 07:29:05;;;;;;;13.63;4.65;;;6.70;99.90;;;;;;5013378;28;20057;-52
2022/02/18 07:31:31;;;;;;;12.63;4.40;;;6.70;99.90;;;;;;5013216;28;20065;-51
2022/02/18 07:33:57;;;;;;;11.32;4.75;;;6.70;99.90;;;;;;5013411;28;20517;-52
2022/02/18 07:36:23;;;;;;;16.15;4.65;;;6.70;99.90;;;;;;5013865;28;20382;-54
2022/02/18 07:38:48;;;;;;;15.45;4.80;;;6.70;99.90;;;;;;5012265;28;20045;-53
2022/02/18 07:41:14;;;;;;;13.38;4.13;;;6.80;99.90;;;;;;5013134;28;20046;-53
2022/02/18 07:43:40;;;;;;;15.50;4.68;;;6.80;99.90;;;;;;5013026;28;20443;-57
2022/02/18 07:46:05;;;;;;;14.60;4.03;;;6.80;99.90;;;;;;5013159;28;20030;-53
2022/02/18 07:48:31;;;;;;;15.10;5.22;;;6.80;99.90;;;;;;5013301;28;20161;-54
2022/02/18 07:50:57;;;;;;;10.48;4.28;;;6.80;99.90;;;;;;5012719;28;20401;-52
2022/02/18 07:53:22;;;;;;;13.15;4.28;;;6.90;99.90;;;;;;5012846;28;20034;-51
2022/02/18 07:55:48;;;;;;;12.43;4.63;;;6.90;99.90;;;;;;5013682;28;20034;-58
2022/02/18 07:58:14;;;;;;;20.15;5.10;;;6.90;99.90;;;;;;5013163;28;20383;-53
2022/02/18 08:00:40;;;;;;;16.73;5.10;;;7.00;99.90;;;;;;5016802;28;20135;-56
2022/02/18 08:03:05;;;;;;;18.33;4.40;;;7.00;99.90;;;;;;5016879;28;20057;-52
2022/02/18 08:05:31;;;;;;;11.35;4.22;;;7.00;99.90;;;;;;5017100;28;20034;-48
2022/02/18 08:07:58;;;;;;;19.75;8.35;;;7.00;99.90;;;;;;5015632;28;20046;-51
2022/02/18 08:10:25;;;;;;;19.10;5.70;;;7.00;99.90;;;;;;5017383;28;20367;-50
2022/02/18 08:12:51;;;;;;;12.00;5.35;;;7.10;99.90;;;;;;5017141;28;20030;-56
2022/02/18 08:15:17;;;;;;;15.00;4.70;;;7.10;99.90;;;;;;5017161;28;20121;-53
2022/02/18 08:17:43;;;;;;;13.00;4.68;;;7.20;99.90;;;;;;4999765;28;20111;-57
2022/02/18 08:20:11;;;;;;;12.40;4.65;;;7.20;99.90;;;;;;5009079;28;20041;-56
2022/02/18 08:22:37;;;;;;;12.40;4.43;;;7.20;99.90;;;;;;5016721;28;20017;-51
2022/02/18 08:25:04;;;;;;;14.23;4.68;;;7.20;99.90;;;;;;5016471;28;20030;-53
2022/02/18 08:27:29;;;;;;;15.48;5.45;;;7.20;99.90;;;;;;5016620;28;20026;-54
2022/02/18 08:29:55;;;;;;;14.27;4.88;;;7.30;99.90;;;;;;5016347;28;20114;-48
2022/02/18 08:32:21;;;;;;;14.20;5.50;;;7.30;99.90;;;;;;5016387;28;20092;-48
2022/02/18 08:34:47;;;;;;;13.50;4.50;;;7.30;99.90;;;;;;5017606;28;20068;-53
2022/02/18 08:37:13;;;;;;;20.08;6.57;;;7.40;99.90;;;;;;5016962;28;20034;-51
2022/02/18 08:39:40;;;;;;;12.05;4.13;;;7.40;99.90;;;;;;5016654;28;20042;-56
2022/02/18 08:42:07;;;;;;;13.05;5.20;;;7.50;99.90;;;;;;4999218;28;20046;-56
2022/02/18 08:44:33;;;;;;;13.20;4.75;;;7.50;99.90;;;;;;5016483;28;20034;-55
2022/02/18 08:46:59;;;;;;;11.95;4.65;;;7.50;99.90;;;;;;5016225;28;20029;-57
2022/02/18 08:49:24;;;;;;;12.60;4.45;;;7.60;99.90;;;;;;5016121;28;20038;-56
2022/02/18 08:51:50;;;;;;;40.33;7.60;;;7.70;99.90;;;;;;5015819;28;20497;-50
2022/02/18 08:54:15;;;;;;;19.90;6.30;;;7.70;99.90;;;;;;5015945;28;20115;-51
2022/02/18 08:56:41;;;;;;;18.40;6.07;;;7.70;99.90;;;;;;5016352;28;20034;-59
2022/02/18 08:59:08;;;;;;;18.50;6.20;;;7.70;99.90;;;;;;5016261;28;20048;-51
2022/02/18 09:01:34;;;;;;;10.43;5.63;;;7.70;99.90;;;;;;5016676;28;20514;-56
2022/02/18 09:04:00;;;;;;;18.45;5.40;;;7.70;99.90;;;;;;5014841;28;20034;-55
2022/02/18 09:06:25;;;;;;;17.63;5.82;;;7.80;99.90;;;;;;5016964;28;20427;-54
2022/02/18 09:08:51;;;;;;;22.23;5.00;;;7.80;99.90;;;;;;5016819;28;20032;-56
2022/02/18 09:11:18;;;;;;;18.75;5.47;;;7.80;99.90;;;;;;5015590;28;20029;-56
2022/02/18 09:13:45;;;;;;;11.80;5.05;;;7.80;99.90;;;;;;5016406;28;20034;-57
2022/02/18 09:16:13;;;;;;;13.02;4.75;;;7.70;99.90;;;;;;5015963;28;20653;-55
2022/02/18 09:18:38;;;;;;;13.15;4.68;;;7.80;99.90;;;;;;5015882;28;20048;-54
2022/02/18 09:21:04;;;;;;;41.63;7.85;;;7.70;99.90;;;;;;5034005;28;20100;-55
2022/02/18 09:23:30;;;;;;;15.15;4.72;;;7.70;99.90;;;;;;5035077;28;20025;-55
2022/02/18 09:25:55;;;;;;;19.52;7.47;;;7.80;99.90;;;;;;5035007;28;20547;-55
2022/02/18 09:28:23;;;;;;;19.02;6.20;;;7.80;99.90;;;;;;5017518;28;20033;-55
2022/02/18 09:30:51;;;;;;;17.65;4.97;;;7.80;99.90;;;;;;5035183;28;20526;-55
2022/02/18 09:33:17;;;;;;;14.90;4.57;;;8.00;99.90;;;;;;5034560;28;20370;-57
2022/02/18 09:35:44;;;;;;;15.80;4.88;;;8.00;99.90;;;;;;5034596;28;20571;-56
2022/02/18 09:38:11;;;;;;;12.30;4.60;;;7.90;99.90;;;;;;5034867;28;20030;-55
2022/02/18 09:40:37;;;;;;;16.60;5.90;;;7.90;99.90;;;;;;5033754;28;20115;-53
2022/02/18 09:43:03;;;;;;;15.93;5.57;;;7.90;99.90;;;;;;5015045;28;20058;-55
2022/02/18 09:45:30;;;;;;;14.75;5.82;;;8.00;99.90;;;;;;5015368;28;20041;-56
2022/02/18 09:47:56;;;;;;;18.77;5.20;;;7.90;99.90;;;;;;5015314;28;20026;-53
2022/02/18 09:50:22;;;;;;;14.75;5.28;;;7.90;99.90;;;;;;5014878;28;20026;-54
2022/02/18 09:52:48;;;;;;;17.73;6.15;;;8.00;99.90;;;;;;5014557;28;20040;-56
2022/02/18 09:55:14;;;;;;;29.27;5.80;;;8.00;99.90;;;;;;5014591;28;20486;-55
2022/02/18 09:57:44;;;;;;;14.77;5.10;;;8.00;99.90;;;;;;5015042;28;20118;-55
2022/02/18 10:00:11;;;;;;;22.33;9.07;;;8.00;99.90;;;;;;5015154;28;20026;-56
2022/02/18 10:02:37;;;;;;;22.48;6.32;;;8.00;99.90;;;;;;5014948;28;20028;-56
2022/02/18 10:05:03;;;;;;;19.35;6.25;;;8.00;99.90;;;;;;5015471;28;20065;-54
2022/02/18 10:07:31;;;;;;;20.20;5.63;;;8.00;99.90;;;;;;5015370;28;20036;-55
2022/02/18 10:09:57;;;;;;;17.42;5.40;;;8.00;99.90;;;;;;5015784;28;20112;-56
2022/02/18 10:12:42;;;;;;;16.13;4.82;;;8.00;99.90;;;;;;5015220;28;20076;-54
2022/02/18 10:15:10;;;;;;;17.88;5.35;;;8.00;99.90;;;;;;5014699;28;20517;-55
2022/02/18 10:17:41;;;;;;;22.42;6.22;;;8.00;99.90;;;;;;5015966;28;20037;-55
2022/02/18 10:20:16;;;;;;;19.92;6.15;;;8.10;99.90;;;;;;5013696;28;20026;-56
2022/02/18 10:23:02;;;;;;;16.25;4.95;;;8.10;99.90;;;;;;5014242;28;20018;-57
2022/02/18 10:25:33;;;;;;;16.02;5.28;;;8.00;99.90;;;;;;5014488;28;20038;-56
2022/02/18 10:27:59;;;;;;;17.90;5.50;;;8.10;99.90;;;;;;5014620;28;20141;-56
2022/02/18 10:30:28;;;;;;;16.25;4.53;;;8.10;99.90;;;;;;5014571;28;20460;-57
2022/02/18 10:32:55;;;;;;;15.85;4.82;;;8.10;99.90;;;;;;5014026;28;20116;-54
2022/02/18 10:35:32;;;;;;;19.13;5.75;;;8.10;99.90;;;;;;5014563;28;20037;-55
2022/02/18 10:37:58;;;;;;;24.73;6.22;;;8.10;99.90;;;;;;5014166;28;20511;-56
2022/02/18 10:40:23;;;;;;;20.58;5.15;;;8.10;99.90;;;;;;5014509;28;20114;-54
2022/02/18 10:42:52;;;;;;;19.83;5.15;;;8.10;99.90;;;;;;5012836;28;20153;-52
2022/02/18 10:45:23;;;;;;;18.48;5.50;;;8.00;99.90;;;;;;5013910;28;20579;-57
2022/02/18 10:47:51;;;;;;;23.17;7.00;;;8.00;99.90;;;;;;4996141;28;20049;-55
2022/02/18 10:50:26;;;;;;;20.92;6.05;;;8.00;99.90;;;;;;5013996;28;20434;-54
2022/02/18 10:53:11;;;;;;;;;;;8.00;99.90;;;;;;5013279;28;20490;-56
2022/02/18 10:55:54;;;;;;;23.52;6.07;;;7.90;99.90;;;;;;5013697;28;20004;-54
2022/02/18 10:58:26;;;;;;;23.15;6.88;;;7.90;99.90;;;;;;5014265;28;20029;-56
2022/02/18 11:01:12;;;;;;;14.60;5.97;;;7.80;99.90;;;;;;5014040;28;20080;-54
2022/02/18 11:03:40;;;;;;;23.95;6.32;;;7.80;99.90;;;;;;5013451;28;20032;-58
2022/02/18 11:06:14;;;;;;;23.40;7.00;;;7.80;99.90;;;;;;5013796;28;20030;-55
2022/02/18 11:09:06;;;;;;;;;;;7.70;99.90;;;;;;5014245;28;20029;-54
2022/02/18 11:11:37;;;;;;;19.73;6.82;;;7.80;99.90;;;;;;5009599;28;19905;-55
2022/02/18 11:14:08;;;;;;;19.25;6.72;;;7.70;99.90;;;;;;5014109;28;20121;-57
2022/02/18 11:16:36;;;;;;;28.15;8.15;;;7.70;99.90;;;;;;5005642;28;20077;-54
2022/02/18 11:19:02;;;;;;;23.50;6.80;;;7.70;99.90;;;;;;4994330;28;20506;-57
2022/02/18 11:21:29;;;;;;;20.95;6.53;;;7.60;99.90;;;;;;5013581;28;20034;-57
2022/02/18 11:23:56;;;;;;;23.90;6.40;;;7.60;99.90;;;;;;5013623;28;20037;-57
2022/02/18 11:26:23;;;;;;;21.58;6.30;;;7.70;99.90;;;;;;5013253;28;20018;-57
2022/02/18 11:28:50;;;;;;;24.58;7.32;;;7.60;99.90;;;;;;5013326;28;20045;-59
2022/02/18 11:31:23;;;;;;;29.70;7.13;;;7.60;99.90;;;;;;5013150;28;20030;-55
2022/02/18 11:34:24;;;;;;;23.00;7.68;;;7.60;99.90;;;;;;5012295;28;20033;-56
2022/02/18 11:37:21;;;;;;;26.13;7.40;;;7.70;99.90;;;;;;5013619;28;20116;-59
2022/02/18 11:40:18;;;;;;;28.13;8.10;;;7.70;99.90;;;;;;5011792;28;20026;-57
2022/02/18 11:43:21;;;;;;;22.83;6.70;;;7.70;99.90;;;;;;5014190;28;20026;-59
2022/02/18 11:46:02;;;;;;;25.77;7.85;;;7.70;99.90;;;;;;5013923;28;20077;-58
2022/02/18 11:48:56;;;;;;;22.23;6.40;;;7.60;99.90;;;;;;5012937;28;20069;-57
2022/02/18 11:51:24;;;;;;;25.83;6.90;;;7.70;99.90;;;;;;5012355;28;20554;-57
2022/02/18 11:53:59;;;;;;;23.05;7.65;;;7.70;99.90;;;;;;5013293;28;20029;-59
2022/02/18 11:56:41;;;;;;;37.05;9.43;;;7.60;99.90;;;;;;5013646;28;20034;-58
2022/02/18 11:59:08;;;;;;;26.25;7.82;;;7.60;99.90;;;;;;5013223;28;20030;-57
2022/02/18 12:02:03;;;;;;;26.50;7.38;;;7.70;99.90;;;;;;4995787;28;20057;-57
2022/02/18 12:04:30;;;;;;;25.60;6.82;;;7.70;99.90;;;;;;5013308;28;20037;-57
2022/02/18 12:07:20;;;;;;;25.35;7.32;;;7.70;99.90;;;;;;5012676;28;20490;-55
2022/02/18 12:09:48;;;;;;;21.88;6.82;;;7.70;99.90;;;;;;5013197;28;20116;-57
2022/02/18 12:12:27;;;;;;;22.85;7.35;;;7.70;99.90;;;;;;4995317;28;20038;-56
2022/02/18 12:14:58;;;;;;;28.50;8.20;;;7.70;99.90;;;;;;4995050;28;20038;-57
2022/02/18 12:17:25;;;;;;;29.45;8.40;;;7.80;99.90;;;;;;5021693;28;20087;-57
2022/02/18 12:19:51;;;;;;;28.52;8.27;;;7.80;99.90;;;;;;5024447;28;20041;-56
2022/02/18 12:22:37;;;;;;;30.85;7.13;;;7.80;99.90;;;;;;5012586;28;20041;-60
2022/02/18 12:25:27;;;;;;;24.92;7.43;;;7.80;99.90;;;;;;5013184;28;20044;-60
2022/02/18 12:28:14;;;;;;;31.13;7.65;;;7.80;99.90;;;;;;5012385;28;20124;-59
2022/02/18 12:30:40;;;;;;;28.13;8.82;;;7.80;99.90;;;;;;4998649;28;20490;-54
2022/02/18 12:33:06;;;;;;;32.22;8.18;;;7.80;99.90;;;;;;5011171;28;20037;-56
2022/02/18 12:35:34;;;;;;;18.83;6.55;;;7.90;99.90;;;;;;5013274;28;20124;-57
2022/02/18 12:38:02;;;;;;;30.75;8.48;;;7.90;99.90;;;;;;5013146;28;20479;-56
2022/02/18 12:40:31;;;;;;;19.52;6.95;;;8.00;99.90;;;;;;5013208;28;20053;-56
2022/02/18 12:43:01;;;;;;;26.42;7.95;;;8.00;99.90;;;;;;5013392;28;20034;-57
2022/02/18 12:45:45;;;;;;;25.92;8.50;;;8.00;99.90;;;;;;5014733;28;20062;-55
2022/02/18 12:48:11;;;;;;;21.40;7.85;;;8.00;99.90;;;;;;5016778;28;20074;-57
2022/02/18 12:50:41;;;;;;;22.77;7.57;;;8.10;99.90;;;;;;4998559;28;20113;-54
2022/02/18 12:53:09;;;;;;;24.88;7.82;;;8.20;99.90;;;;;;5015441;28;20030;-59
2022/02/18 12:55:37;;;;;;;29.58;7.97;;;8.20;99.90;;;;;;5016088;28;20061;-58